Time;durP1;ratioP1;P1;durP2;ratioP2;P2;SDS_P1;SDS_P2;PMS_P1;PMS_P2;Temp;Humidity;BMP_temperature;BMP_pressure;BME280_temperature;BME280_humidity;BME280_pressure;Samples;Min_cycle;Max_cycle;Signal;HPM_P1;HPM_P2
2021/05/16 00:00:21;;;;;;;;;;;;;;;18.07;43.49;99917.31;5032971;27;98950;-74
2021/05/16 00:02:47;;;;;;;;;;;;;;;17.88;43.83;99915.25;5029851;28;99132;-75
2021/05/16 00:05:15;;;;;;;;;;;;;;;17.88;43.61;99913.44;5028422;28;97062;-74
2021/05/16 00:07:41;;;;;;;;;;;;;;;17.91;43.57;99910.53;5032969;27;97264;-73
2021/05/16 00:10:08;;;;;;;;;;;;;;;17.82;44.21;99910.38;5031821;27;99045;-74
2021/05/16 00:12:35;;;;;;;;;;;;;;;18.11;43.47;99906.28;5030326;27;98896;-74
2021/05/16 00:15:01;;;;;;;;;;;;;;;17.91;44.54;99907.84;5031598;27;97328;-74
2021/05/16 00:17:27;;;;;;;;;;;;;;;17.76;44.66;99909.06;5031289;28;97332;-74
2021/05/16 00:19:53;;;;;;;;;;;;;;;17.64;44.77;99915.34;5031183;27;98961;-74
2021/05/16 00:22:18;;;;;;;;;;;;;;;17.90;44.29;99908.81;5029972;27;99028;-73
2021/05/16 00:24:45;;;;;;;;;;;;;;;17.69;44.60;99918.53;5029986;27;96863;-74
2021/05/16 00:27:11;;;;;;;;;;;;;;;17.66;44.50;99910.72;5033939;28;97060;-74
2021/05/16 00:29:37;;;;;;;;;;;;;;;17.74;44.46;99910.13;5032529;28;98692;-74
2021/05/16 00:32:03;;;;;;;;;;;;;;;17.68;44.48;99903.44;5033226;27;97929;-74
2021/05/16 00:34:28;;;;;;;;;;;;;;;17.68;44.65;99898.09;5034458;27;98187;-76
2021/05/16 00:36:54;;;;;;;;;;;;;;;17.49;45.16;99908.50;5031896;28;96943;-75
2021/05/16 00:39:20;;;;;;;;;;;;;;;17.74;44.69;99899.44;5035216;28;98888;-75
2021/05/16 00:41:46;;;;;;;;;;;;;;;17.68;44.57;99906.13;5021913;27;98698;-74
2021/05/16 00:44:14;;;;;;;;;;;;;;;17.43;45.33;99901.81;5035115;28;97771;-75
2021/05/16 00:46:40;;;;;;;;;;;;;;;17.71;44.97;99900.56;5030430;28;97211;-74
2021/05/16 00:49:06;;;;;;;;;;;;;;;17.58;45.12;99902.44;5034154;27;99231;-75
2021/05/16 00:51:31;;;;;;;;;;;;;;;17.69;44.85;99907.84;5032862;27;98817;-76
2021/05/16 00:53:57;;;;;;;;;;;;;;;17.56;45.09;99906.19;5034757;27;97667;-74
2021/05/16 00:56:23;;;;;;;;;;;;;;;17.67;44.75;99906.22;5035824;27;96941;-74
2021/05/16 00:58:50;;;;;;;;;;;;;;;17.37;45.57;99909.44;5038459;27;99173;-73
2021/05/16 01:01:18;;;;;;;;;;;;;;;17.22;46.10;99914.13;5035784;28;98161;-74
2021/05/16 01:03:44;;;;;;;;;;;;;;;17.06;46.34;99911.78;5034451;27;97114;-74
2021/05/16 01:06:10;;;;;;;;;;;;;;;17.13;46.54;99913.00;5035037;27;96886;-75
2021/05/16 01:08:36;;;;;;;;;;;;;;;17.13;46.17;99913.00;5034123;27;99195;-74
2021/05/16 01:11:02;;;;;;;;;;;;;;;17.34;45.81;99905.16;5033533;27;97659;-74
2021/05/16 01:13:28;;;;;;;;;;;;;;;17.04;46.40;99911.03;5035171;28;96704;-74
2021/05/16 01:15:55;;;;;;;;;;;;;;;17.12;46.29;99913.13;5033733;27;97129;-75
2021/05/16 01:18:21;;;;;;;;;;;;;;;17.09;46.41;99911.53;5044786;27;98952;-74
2021/05/16 01:20:49;;;;;;;;;;;;;;;17.16;46.41;99909.25;5037083;27;98750;-74
2021/05/16 01:23:17;;;;;;;;;;;;;;;17.27;45.90;99909.28;5033801;27;96723;-75
2021/05/16 01:25:44;;;;;;;;;;;;;;;17.17;46.20;99910.09;5034562;27;96735;-75
2021/05/16 01:28:11;;;;;;;;;;;;;;;16.98;46.71;99916.84;5033179;27;98908;-74
2021/05/16 01:30:38;;;;;;;;;;;;;;;17.04;46.90;99915.53;5035091;28;98934;-73
2021/05/16 01:33:04;;;;;;;;;;;;;;;16.78;47.24;99914.78;5034403;27;98862;-75
2021/05/16 01:35:30;;;;;;;;;;;;;;;16.96;46.88;99923.25;5033647;27;97373;-74
2021/05/16 01:37:56;;;;;;;;;;;;;;;16.72;47.23;99913.44;5033509;27;99381;-74
2021/05/16 01:40:23;;;;;;;;;;;;;;;16.84;47.25;99925.00;5034441;27;99155;-74
2021/05/16 01:42:51;;;;;;;;;;;;;;;16.93;46.91;99913.66;5036485;27;96799;-74
2021/05/16 01:45:17;;;;;;;;;;;;;;;16.82;47.17;99918.94;5033965;27;96835;-76
2021/05/16 01:47:43;;;;;;;;;;;;;;;16.74;47.35;99924.81;5033348;27;98908;-74
2021/05/16 01:50:10;;;;;;;;;;;;;;;16.83;47.60;99925.97;5035827;27;98780;-74
2021/05/16 01:52:36;;;;;;;;;;;;;;;16.61;48.17;99925.84;5036337;27;96797;-74
2021/05/16 01:55:02;;;;;;;;;;;;;;;16.77;47.75;99923.75;5034945;27;96800;-74
2021/05/16 01:57:29;;;;;;;;;;;;;;;16.62;48.23;99923.06;5034285;27;99281;-75
2021/05/16 01:59:55;;;;;;;;;;;;;;;16.60;48.55;99926.81;5034169;27;98892;-74
2021/05/16 02:02:21;;;;;;;;;;;;;;;16.77;48.06;99917.56;5033785;27;97509;-74
2021/05/16 02:04:47;;;;;;;;;;;;;;;16.62;48.17;99924.88;5033176;27;98668;-74
2021/05/16 02:07:13;;;;;;;;;;;;;;;16.35;48.79;99922.38;5034364;27;97695;-74
2021/05/16 02:09:40;;;;;;;;;;;;;;;16.20;49.52;99920.81;5033050;27;98905;-75
2021/05/16 02:12:06;;;;;;;;;;;;;;;16.13;49.87;99922.22;5034586;27;97189;-73
2021/05/16 02:14:33;;;;;;;;;;;;;;;16.18;50.07;99926.25;5034184;27;98490;-74
2021/05/16 02:17:00;;;;;;;;;;;;;;;16.14;50.30;99918.59;5034140;27;98970;-74
2021/05/16 02:19:25;;;;;;;;;;;;;;;15.82;51.38;99924.38;5033773;27;98955;-73
2021/05/16 02:21:52;;;;;;;;;;;;;;;15.78;51.61;99930.03;5033687;27;96773;-74
2021/05/16 02:24:18;;;;;;;;;;;;;;;15.82;51.37;99939.50;5033487;27;96906;-74
2021/05/16 02:26:45;;;;;;;;;;;;;;;15.90;51.26;99943.34;5034572;27;98793;-74
2021/05/16 02:29:11;;;;;;;;;;;;;;;15.97;50.54;99941.09;5033327;27;99139;-74
2021/05/16 02:31:37;;;;;;;;;;;;;;;15.88;51.00;99939.09;5035159;28;96678;-74
2021/05/16 02:34:03;;;;;;;;;;;;;;;15.82;51.05;99940.34;5033513;27;97260;-74
2021/05/16 02:36:29;;;;;;;;;;;;;;;15.78;50.84;99938.00;5034803;27;98860;-75
2021/05/16 02:38:55;;;;;;;;;;;;;;;15.94;50.36;99938.66;5035173;27;98780;-73
2021/05/16 02:41:21;;;;;;;;;;;;;;;15.95;50.26;99935.00;5033711;27;97302;-75
2021/05/16 02:43:47;;;;;;;;;;;;;;;16.06;50.21;99939.59;5035139;27;96812;-74
2021/05/16 02:46:13;;;;;;;;;;;;;;;15.91;50.55;99937.06;5035219;28;99015;-74
2021/05/16 02:48:40;;;;;;;;;;;;;;;16.21;49.75;99933.19;5035483;28;98882;-74
2021/05/16 02:51:06;;;;;;;;;;;;;;;16.01;50.32;99933.75;5036370;27;97285;-74
2021/05/16 02:53:32;;;;;;;;;;;;;;;15.89;50.82;99940.78;5038128;27;97153;-75
2021/05/16 02:55:57;;;;;;;;;;;;;;;16.05;50.43;99949.41;5036601;28;99314;-75
2021/05/16 02:58:23;;;;;;;;;;;;;;;15.78;51.17;99946.00;5033921;27;98889;-74
2021/05/16 03:00:49;;;;;;;;;;;;;;;15.77;50.76;99941.63;5036854;27;97082;-74
2021/05/16 03:03:15;;;;;;;;;;;;;;;15.98;50.43;99942.81;5034152;27;96934;-75
2021/05/16 03:05:41;;;;;;;;;;;;;;;15.89;50.48;99946.97;5034500;27;98860;-74
2021/05/16 03:08:07;;;;;;;;;;;;;;;15.92;50.39;99943.25;5034841;28;98996;-76
2021/05/16 03:10:33;;;;;;;;;;;;;;;15.84;50.45;99942.91;5037265;27;97062;-75
2021/05/16 03:12:59;;;;;;;;;;;;;;;15.82;50.63;99944.81;5033591;27;98895;-75
2021/05/16 03:15:25;;;;;;;;;;;;;;;15.83;50.24;99939.41;5039184;27;98910;-72
2021/05/16 03:17:50;;;;;;;;;;;;;;;15.81;50.34;99937.81;5047101;27;97978;-74
2021/05/16 03:20:16;;;;;;;;;;;;;;;15.80;50.77;99938.78;5053237;27;96852;-75
2021/05/16 03:22:43;;;;;;;;;;;;;;;16.02;50.05;99933.63;5047169;27;96714;-73
2021/05/16 03:25:10;;;;;;;;;;;;;;;15.73;50.54;99933.03;5040470;27;98828;-74
2021/05/16 03:27:36;;;;;;;;;;;;;;;15.63;50.83;99931.06;5032861;27;99065;-74
2021/05/16 03:30:02;;;;;;;;;;;;;;;15.69;50.76;99935.97;5033945;27;96799;-74
2021/05/16 03:32:28;;;;;;;;;;;;;;;15.88;50.38;99933.78;5033448;27;97086;-74
2021/05/16 03:34:54;;;;;;;;;;;;;;;15.85;50.36;99933.97;5032781;27;98925;-74
2021/05/16 03:37:23;;;;;;;;;;;;;;;16.33;49.39;99938.50;5032824;27;98798;-74
2021/05/16 03:39:49;;;;;;;;;;;;;;;16.43;49.09;99925.34;5036740;28;96791;-75
2021/05/16 03:42:15;;;;;;;;;;;;;;;16.55;48.62;99929.78;5032009;28;97196;-74
2021/05/16 03:44:41;;;;;;;;;;;;;;;16.55;48.60;99935.09;5033111;27;98911;-74
2021/05/16 03:47:07;;;;;;;;;;;;;;;16.30;49.48;99935.19;5031273;27;98736;-74
2021/05/16 03:49:32;;;;;;;;;;;;;;;16.42;49.13;99930.78;5033241;28;96856;-74
2021/05/16 03:51:58;;;;;;;;;;;;;;;16.46;48.82;99929.59;5032878;27;97037;-74
2021/05/16 03:54:24;;;;;;;;;;;;;;;16.33;48.93;99925.16;5032968;28;99267;-74
2021/05/16 03:56:51;;;;;;;;;;;;;;;16.45;48.69;99927.91;5030474;27;99077;-74
2021/05/16 03:59:16;;;;;;;;;;;;;;;16.20;49.26;99928.81;5035313;27;96698;-75
2021/05/16 04:01:42;;;;;;;;;;;;;;;16.09;49.48;99932.22;5035976;27;98824;-75
2021/05/16 04:04:08;;;;;;;;;;;;;;;16.45;48.83;99923.41;5036617;27;98861;-74
2021/05/16 04:06:34;;;;;;;;;;;;;;;16.45;48.68;99927.91;5035467;27;98802;-74
2021/05/16 04:08:59;;;;;;;;;;;;;;;16.56;48.38;99925.28;5037065;27;97068;-74
2021/05/16 04:11:25;;;;;;;;;;;;;;;16.93;47.24;99926.16;5037417;27;98206;-74
2021/05/16 04:13:52;;;;;;;;;;;;;;;16.98;46.97;99930.19;5040359;27;98884;-74
2021/05/16 04:16:18;;;;;;;;;;;;;;;17.40;46.19;99933.22;5039297;27;98194;-74
2021/05/16 04:18:43;;;;;;;;;;;;;;;17.52;45.87;99932.31;5050131;27;96935;-74
2021/05/16 04:21:09;;;;;;;;;;;;;;;17.69;45.32;99929.19;5035539;27;97057;-74
2021/05/16 04:23:35;;;;;;;;;;;;;;;17.56;45.55;99919.56;5035507;27;99169;-74
2021/05/16 04:26:01;;;;;;;;;;;;;;;17.90;44.60;99913.31;5034032;27;98855;-75
2021/05/16 04:28:27;;;;;;;;;;;;;;;17.75;44.85;99920.72;5035580;27;96934;-73
2021/05/16 04:30:53;;;;;;;;;;;;;;;17.65;44.93;99921.56;5034119;27;96834;-73
2021/05/16 04:33:19;;;;;;;;;;;;;;;17.71;44.91;99927.28;5035800;27;99442;-74
2021/05/16 04:35:45;;;;;;;;;;;;;;;17.34;45.78;99923.00;5035255;27;98870;-74
2021/05/16 04:38:11;;;;;;;;;;;;;;;17.25;46.16;99929.91;5035343;28;96745;-74
2021/05/16 04:40:37;;;;;;;;;;;;;;;17.07;46.98;99932.13;5036244;27;97172;-74
2021/05/16 04:43:03;;;;;;;;;;;;;;;17.07;47.05;99929.47;5035048;27;98935;-74
2021/05/16 04:45:28;;;;;;;;;;;;;;;17.10;47.02;99926.59;5035966;27;97728;-74
2021/05/16 04:47:55;;;;;;;;;;;;;;;17.32;46.55;99936.50;5034425;28;96883;-74
2021/05/16 04:50:21;;;;;;;;;;;;;;;17.41;46.15;99934.94;5035817;27;96880;-74
2021/05/16 04:52:47;;;;;;;;;;;;;;;17.64;45.86;99938.56;5034106;27;102019;-73
2021/05/16 04:55:13;;;;;;;;;;;;;;;17.32;46.21;99946.31;5035875;27;98776;-74
2021/05/16 04:57:39;;;;;;;;;;;;;;;17.30;46.38;99937.56;5032993;27;97066;-74
2021/05/16 05:00:05;;;;;;;;;;;;;;;17.27;46.17;99938.66;5035356;27;97090;-73
2021/05/16 05:02:32;;;;;;;;;;;;;;;17.56;45.97;99938.25;5035108;27;98213;-74
2021/05/16 05:04:58;;;;;;;;;;;;;;;17.40;46.46;99941.22;5034787;27;98833;-74
2021/05/16 05:07:24;;;;;;;;;;;;;;;17.17;46.92;99937.66;5035107;27;96878;-74
2021/05/16 05:09:50;;;;;;;;;;;;;;;17.14;47.17;99943.22;5034087;27;96913;-74
2021/05/16 05:12:16;;;;;;;;;;;;;;;17.39;46.43;99947.56;5034263;28;99355;-75
2021/05/16 05:14:42;;;;;;;;;;;;;;;17.64;46.07;99944.75;5035222;27;98275;-73
2021/05/16 05:17:07;;;;;;;;;;;;;;;17.92;45.47;99949.63;5034031;27;96982;-75
2021/05/16 05:19:33;;;;;;;;;;;;;;;18.16;44.58;99946.00;5022322;28;96810;-75
2021/05/16 05:22:00;;;;;;;;;;;;;;;18.69;43.94;99950.59;5033660;28;98868;-73
2021/05/16 05:24:26;;;;;;;;;;;;;;;18.57;43.66;99948.94;5035408;27;98539;-73
2021/05/16 05:26:52;;;;;;;;;;;;;;;18.03;44.87;99963.97;5034093;28;97009;-73
2021/05/16 05:29:17;;;;;;;;;;;;;;;18.14;45.03;99953.28;5034703;27;98786;-73
2021/05/16 05:31:45;;;;;;;;;;;;;;;17.99;45.36;99952.66;5033457;27;99109;-73
2021/05/16 05:34:11;;;;;;;;;;;;;;;18.03;45.17;99951.47;5036893;27;98828;-73
2021/05/16 05:36:37;;;;;;;;;;;;;;;17.71;46.07;99950.47;5033801;27;96810;-74
2021/05/16 05:39:03;;;;;;;;;;;;;;;17.95;45.98;99959.25;5034829;28;96850;-73
2021/05/16 05:41:29;;;;;;;;;;;;;;;17.97;45.43;99959.97;5033322;27;98961;-74
2021/05/16 05:43:55;;;;;;;;;;;;;;;18.20;45.01;99959.00;5034567;27;100240;-76
2021/05/16 05:46:21;;;;;;;;;;;;;;;18.27;45.03;99956.69;5033800;27;96806;-74
2021/05/16 05:48:47;;;;;;;;;;;;;;;17.76;45.49;99956.28;5035044;28;97694;-74
2021/05/16 05:51:13;;;;;;;;;;;;;;;17.63;45.97;99953.72;5033535;27;97173;-75
2021/05/16 05:53:40;;;;;;;;;;;;;;;18.44;44.23;99955.34;5035894;27;101455;-75
2021/05/16 05:56:07;;;;;;;;;;;;;;;19.09;42.27;99952.69;5034337;28;97170;-75
2021/05/16 05:58:35;;;;;;;;;;;;;;;19.18;41.77;99959.06;5035121;27;96750;-74
2021/05/16 06:01:00;;;;;;;;;;;;;;;19.48;41.64;99954.72;5032655;27;98760;-74
2021/05/16 06:03:26;;;;;;;;;;;;;;;19.42;41.26;99947.16;5035050;27;98924;-74
2021/05/16 06:05:53;;;;;;;;;;;;;;;19.78;40.66;99951.22;5033770;27;96933;-73
2021/05/16 06:08:19;;;;;;;;;;;;;;;19.94;39.97;99947.25;5034484;28;99137;-74
2021/05/16 06:10:45;;;;;;;;;;;;;;;20.88;38.75;99938.81;5032393;27;99154;-75
2021/05/16 06:13:12;;;;;;;;;;;;;;;21.15;36.91;99936.28;5033305;27;102673;-74
2021/05/16 06:15:37;;;;;;;;;;;;;;;21.30;36.79;99942.13;5033242;27;97042;-74
2021/05/16 06:18:03;;;;;;;;;;;;;;;20.98;37.86;99945.91;5042785;27;96977;-74
2021/05/16 06:20:29;;;;;;;;;;;;;;;20.29;39.22;99943.16;5039144;27;101473;-75
2021/05/16 06:22:55;;;;;;;;;;;;;;;19.85;40.29;99948.88;5034130;27;98905;-74
2021/05/16 06:25:21;;;;;;;;;;;;;;;20.25;39.53;99944.41;5032877;27;97611;-74
2021/05/16 06:27:47;;;;;;;;;;;;;;;20.95;38.32;99938.13;5034173;27;97967;-73
2021/05/16 06:30:16;;;;;;;;;;;;;;;21.50;37.91;99940.28;5033054;27;98949;-74
2021/05/16 06:32:42;;;;;;;;;;;;;;;20.63;38.75;99940.19;5033873;27;98802;-74
2021/05/16 06:35:08;;;;;;;;;;;;;;;20.65;38.83;99944.44;5034255;27;96964;-74
2021/05/16 06:37:34;;;;;;;;;;;;;;;21.23;37.47;99941.84;5033301;27;96843;-74
2021/05/16 06:40:00;;;;;;;;;;;;;;;21.41;37.25;99950.88;5033384;27;97512;-73
2021/05/16 06:42:27;;;;;;;;;;;;;;;21.58;37.20;99948.47;5022723;28;99225;-73
2021/05/16 06:44:52;;;;;;;;;;;;;;;20.85;38.10;99952.53;5034097;28;96794;-74
2021/05/16 06:47:20;;;;;;;;;;;;;;;20.38;39.63;99963.00;5032855;27;96909;-73
2021/05/16 06:49:50;;;;;;;;;;;;;;;20.22;40.08;99967.97;5033125;27;99158;-74
2021/05/16 06:52:16;;;;;;;;;;;;;;;20.25;40.40;99971.25;5032005;27;98902;-73
2021/05/16 06:54:42;;;;;;;;;;;;;;;20.65;39.30;99975.78;5034142;27;96806;-74
2021/05/16 06:57:08;;;;;;;;;;;;;;;19.81;40.74;99975.13;5031522;27;96990;-73
2021/05/16 06:59:33;;;;;;;;;;;;;;;20.18;40.72;99969.22;5031380;27;98806;-74
2021/05/16 07:01:59;;;;;;;;;;;;;;;19.89;41.38;99972.59;5033636;27;99353;-74
2021/05/16 07:04:26;;;;;;;;;;;;;;;19.54;42.35;99973.94;5033022;27;97371;-73
2021/05/16 07:06:52;;;;;;;;;;;;;;;19.12;43.55;99987.22;5033616;27;96938;-73
2021/05/16 07:09:18;;;;;;;;;;;;;;;18.77;44.39;99991.94;5033291;27;99696;-75
2021/05/16 07:11:44;;;;;;;;;;;;;;;18.27;46.39;99980.75;5033435;28;98907;-73
2021/05/16 07:14:09;;;;;;;;;;;;;;;18.23;46.99;99984.66;5032424;27;96813;-73
2021/05/16 07:16:35;;;;;;;;;;;;;;;18.03;48.45;99985.38;5033026;27;97980;-74
2021/05/16 07:19:02;;;;;;;;;;;;;;;18.53;49.00;99990.22;5045882;27;98853;-74
2021/05/16 07:21:28;;;;;;;;;;;;;;;18.30;49.38;99983.19;5032603;27;97613;-74
2021/05/16 07:23:54;;;;;;;;;;;;;;;18.65;49.18;99978.56;5031718;27;98329;-75
2021/05/16 07:26:20;;;;;;;;;;;;;;;18.18;48.56;99968.13;5030691;27;98664;-74
2021/05/16 07:28:46;;;;;;;;;;;;;;;18.80;48.40;99959.56;5032917;27;98791;-74
2021/05/16 07:31:12;;;;;;;;;;;;;;;19.33;47.51;99961.31;5042573;27;100174;-74
2021/05/16 07:33:38;;;;;;;;;;;;;;;19.36;48.23;99966.41;5034861;27;96920;-75
2021/05/16 07:36:04;;;;;;;;;;;;;;;19.68;46.98;99966.41;5033721;27;97894;-74
2021/05/16 07:38:30;;;;;;;;;;;;;;;19.66;47.86;99965.69;5033818;28;101666;-74
2021/05/16 07:40:56;;;;;;;;;;;;;;;19.95;46.57;99965.88;5032478;27;99098;-74
2021/05/16 07:43:24;;;;;;;;;;;;;;;19.92;46.80;99967.97;5034745;27;96735;-74
2021/05/16 07:45:49;;;;;;;;;;;;;;;20.03;46.96;99973.25;5038426;27;97048;-74
2021/05/16 07:48:15;;;;;;;;;;;;;;;19.99;47.17;99966.44;5040567;27;99859;-74
2021/05/16 07:50:41;;;;;;;;;;;;;;;20.05;45.60;99973.97;5041557;27;98957;-75
2021/05/16 07:53:07;;;;;;;;;;;;;;;19.82;46.81;99978.66;5038452;28;96925;-75
2021/05/16 07:55:34;;;;;;;;;;;;;;;19.70;46.99;99972.47;5037208;28;96867;-73
2021/05/16 07:58:00;;;;;;;;;;;;;;;19.42;47.15;99973.97;5036979;27;99259;-76
2021/05/16 08:00:26;;;;;;;;;;;;;;;19.55;47.90;99968.44;5040245;27;98782;-75
2021/05/16 08:02:59;;;;;;;;;;;;;;;19.66;47.53;99979.09;5038304;28;96879;-74
2021/05/16 08:05:29;;;;;;;;;;;;;;;19.23;48.63;99978.31;5038832;28;96832;-75
2021/05/16 08:07:56;;;;;;;;;;;;;;;19.33;48.83;99984.59;5037539;27;99939;-75
2021/05/16 08:10:22;;;;;;;;;;;;;;;19.54;47.55;99972.09;5037522;27;99977;-75
2021/05/16 08:12:48;;;;;;;;;;;;;;;20.10;47.01;99980.63;5036273;27;97282;-74
2021/05/16 08:15:14;;;;;;;;;;;;;;;20.06;46.22;99979.19;5036825;28;96897;-73
2021/05/16 08:17:40;;;;;;;;;;;;;;;19.80;46.27;99978.78;5035368;27;98980;-74
2021/05/16 08:20:07;;;;;;;;;;;;;;;20.14;45.46;99979.38;5036818;27;98920;-74
2021/05/16 08:22:36;;;;;;;;;;;;;;;20.36;45.94;99975.69;5033768;28;96828;-76
2021/05/16 08:25:17;;;;;;;;;;;;;;;20.48;44.96;99973.78;5037075;27;96925;-75
2021/05/16 08:27:43;;;;;;;;;;;;;;;21.06;42.88;99972.91;5038125;27;99204;-74
2021/05/16 08:30:10;;;;;;;;;;;;;;;20.47;45.22;99972.94;5035669;27;98789;-74
2021/05/16 08:32:36;;;;;;;;;;;;;;;20.60;45.04;99975.38;5035273;27;98596;-72
2021/05/16 08:35:02;;;;;;;;;;;;;;;20.63;44.07;99985.81;5037078;27;97009;-74
2021/05/16 08:37:28;;;;;;;;;;;;;;;20.44;44.54;99977.69;5034623;27;97767;-73
2021/05/16 08:39:54;;;;;;;;;;;;;;;20.25;44.56;99973.94;5035865;27;97528;-74
2021/05/16 08:42:20;;;;;;;;;;;;;;;20.17;44.01;99973.75;5033948;27;96877;-75
2021/05/16 08:44:46;;;;;;;;;;;;;;;19.71;44.87;99976.00;5034590;27;96998;-75
2021/05/16 08:47:14;;;;;;;;;;;;;;;19.69;46.19;99975.31;5040417;27;99507;-73
2021/05/16 08:49:40;;;;;;;;;;;;;;;19.93;44.84;99977.72;5041403;27;98921;-74
2021/05/16 08:52:06;;;;;;;;;;;;;;;19.60;45.39;99974.25;5040901;27;97096;-74
2021/05/16 08:54:32;;;;;;;;;;;;;;;19.17;46.51;99979.66;5040922;27;96955;-74
2021/05/16 08:56:58;;;;;;;;;;;;;;;19.09;47.00;99982.97;5034028;27;99824;-75
2021/05/16 08:59:25;;;;;;;;;;;;;;;18.71;47.48;99983.41;5036345;27;98856;-74
2021/05/16 09:01:53;;;;;;;;;;;;;;;18.98;46.50;99985.66;5036217;28;97365;-74
2021/05/16 09:04:25;;;;;;;;;;;;;;;18.92;48.02;99988.00;5036456;27;96754;-75
2021/05/16 09:06:51;;;;;;;;;;;;;;;18.77;48.51;99992.81;5035482;28;98920;-74
2021/05/16 09:09:24;;;;;;;;;;;;;;;18.99;48.05;99987.38;5031464;27;98536;-74
2021/05/16 09:11:54;;;;;;;;;;;;;;;18.87;49.41;99993.75;5028829;27;96820;-73
2021/05/16 09:14:34;;;;;;;;;;;;;;;18.84;49.71;99993.97;5025709;27;98504;-73
2021/05/16 09:17:18;;;;;;;;;;;;;;;18.71;49.32;99999.47;5028328;27;98925;-74
2021/05/16 09:19:46;;;;;;;;;;;;;;;18.95;48.85;99998.47;5030106;27;99669;-74
2021/05/16 09:22:28;;;;;;;;;;;;;;;19.90;47.41;99998.44;5030661;27;97470;-75
2021/05/16 09:25:04;;;;;;;;;;;;;;;20.11;46.86;100001.09;5028740;27;98630;-74
2021/05/16 09:27:32;;;;;;;;;;;;;;;20.47;45.84;99991.72;5039860;27;99261;-74
2021/05/16 09:29:58;;;;;;;;;;;;;;;20.65;45.67;99991.91;5044839;27;98048;-74
2021/05/16 09:32:25;;;;;;;;;;;;;;;20.86;45.63;99990.00;5030560;27;96849;-74
2021/05/16 09:34:52;;;;;;;;;;;;;;;21.08;45.29;99992.41;5026487;27;97170;-75
2021/05/16 09:37:18;;;;;;;;;;;;;;;20.94;43.23;99989.28;5027997;27;99044;-74
2021/05/16 09:39:45;;;;;;;;;;;;;;;21.53;41.88;99980.31;5025012;27;98852;-74
2021/05/16 09:42:12;;;;;;;;;;;;;;;21.67;41.50;99979.84;5025400;27;97358;-75
2021/05/16 09:44:39;;;;;;;;;;;;;;;21.48;40.34;99976.19;5030158;27;98173;-75
2021/05/16 09:47:12;;;;;;;;;;;;;;;21.48;39.60;99981.56;5025755;27;98922;-75
2021/05/16 09:49:37;;;;;;;;;;;;;;;21.52;39.62;99970.56;5025699;27;98819;-74
2021/05/16 09:52:07;;;;;;;;;;;;;;;21.79;38.88;99968.78;5029713;27;97742;-74
2021/05/16 09:54:48;;;;;;;;;;;;;;;21.74;39.54;99981.81;5017355;28;98639;-74
2021/05/16 09:57:14;;;;;;;;;;;;;;;22.14;39.81;99991.53;5028020;27;99349;-72
2021/05/16 09:59:40;;;;;;;;;;;;;;;22.46;37.52;99983.91;5026683;28;97249;-74
2021/05/16 10:02:06;;;;;;;;;;;;;;;22.47;37.65;99977.53;5034212;28;97192;-75
2021/05/16 10:04:32;;;;;;;;;;;;;;;22.13;38.15;99981.75;5033381;27;97723;-73
2021/05/16 10:06:57;;;;;;;;;;;;;;;22.37;38.00;99976.75;5033351;27;98875;-74
2021/05/16 10:09:24;;;;;;;;;;;;;;;22.17;38.35;99977.81;5032588;27;97888;-74
2021/05/16 10:11:52;;;;;;;;;;;;;;;21.81;39.93;99980.25;5032030;28;97291;-74
2021/05/16 10:14:21;;;;;;;;;;;;;;;21.26;40.35;99971.13;5035809;27;96893;-74
2021/05/16 10:16:48;;;;;;;;;;;;;;;20.89;41.96;99970.91;5034286;27;101723;-75
2021/05/16 10:19:15;;;;;;;;;;;;;;;20.91;41.99;99974.31;5042226;27;99366;-75
2021/05/16 10:22:05;;;;;;;;;;;;;;;20.86;41.63;99975.72;5024754;27;96865;-74
2021/05/16 10:24:38;;;;;;;;;;;;;;;20.89;40.97;99970.06;5026681;28;96903;-74
2021/05/16 10:27:17;;;;;;;;;;;;;;;21.11;40.64;99972.50;5033478;28;99038;-76
2021/05/16 10:29:47;;;;;;;;;;;;;;;21.31;40.05;99978.75;5034056;28;98972;-74
2021/05/16 10:32:19;;;;;;;;;;;;;;;21.12;38.83;99974.19;5029223;27;96762;-75
2021/05/16 10:34:52;;;;;;;;;;;;;;;21.15;38.78;99975.72;5033599;28;97210;-74
2021/05/16 10:37:48;;;;;;;;;;;;;;;21.71;37.86;99975.91;5032822;28;98972;-75
2021/05/16 10:40:31;;;;;;;;;;;;;;;21.96;36.97;99969.09;4989995;28;99170;-75
2021/05/16 10:42:58;;;;;;;;;;;;;;;22.61;36.18;99960.88;5027544;27;96813;-76
2021/05/16 10:45:29;;;;;;;;;;;;;;;22.95;34.82;99954.91;5034540;27;96989;-74
2021/05/16 10:48:05;;;;;;;;;;;;;;;22.31;36.71;99953.13;5029622;27;99371;-74
2021/05/16 10:50:39;;;;;;;;;;;;;;;21.62;38.33;99941.81;5030847;27;98947;-73
2021/05/16 10:53:05;;;;;;;;;;;;;;;21.53;39.11;99956.94;5032596;27;96962;-74
2021/05/16 10:55:33;;;;;;;;;;;;;;;20.55;39.57;99948.91;5040224;28;96798;-75
2021/05/16 10:57:59;;;;;;;;;;;;;;;21.19;38.21;99937.75;5035909;27;99043;-73
2021/05/16 11:00:26;;;;;;;;;;;;;;;21.08;39.78;99940.53;5038655;27;98822;-74
2021/05/16 11:03:02;;;;;;;;;;;;;;;21.47;40.60;99934.19;5040904;28;96677;-73
2021/05/16 11:05:48;;;;;;;;;;;;;;;22.49;36.98;99920.84;5041553;27;97008;-73
2021/05/16 11:08:30;;;;;;;;;;;;;;;22.78;35.51;99921.53;5041514;28;100020;-73
2021/05/16 11:10:57;;;;;;;;;;;;;;;22.01;34.88;99923.75;5041692;27;101159;-76
2021/05/16 11:13:26;;;;;;;;;;;;;;;22.13;35.60;99925.25;5042192;27;97093;-74
2021/05/16 11:15:53;;;;;;;;;;;;;;;22.02;35.45;99918.25;5045144;28;96937;-75
2021/05/16 11:18:22;;;;;;;;;;;;;;;22.88;34.73;99914.25;5047538;27;101356;-75
2021/05/16 11:20:50;;;;;;;;;;;;;;;22.92;34.49;99915.63;5038283;27;100619;-74
2021/05/16 11:23:22;;;;;;;;;;;;;;;22.32;34.82;99905.53;5035514;27;97329;-74
2021/05/16 11:25:53;;;;;;;;;;;;;;;23.02;34.52;99907.50;5034349;27;96833;-75
2021/05/16 11:28:20;;;;;;;;;;;;;;;23.35;33.72;99904.09;5036182;27;99270;-73
2021/05/16 11:30:47;;;;;;;;;;;;;;;23.62;32.91;99910.38;5032020;28;99413;-75
2021/05/16 11:33:24;;;;;;;;;;;;;;;24.07;31.91;99908.31;5038572;27;96743;-76
2021/05/16 11:35:50;;;;;;;;;;;;;;;23.85;32.36;99908.84;5032153;27;96887;-75
2021/05/16 11:38:23;;;;;;;;;;;;;;;23.60;31.85;99907.84;5041077;27;100924;-74
2021/05/16 11:40:50;;;;;;;;;;;;;;;23.35;32.11;99895.16;5038826;27;98820;-73
2021/05/16 11:43:15;;;;;;;;;;;;;;;23.12;33.08;99896.63;5039997;27;97223;-74
2021/05/16 11:45:43;;;;;;;;;;;;;;;23.32;33.02;99896.28;5041828;27;96816;-76
2021/05/16 11:48:23;;;;;;;;;;;;;;;23.65;32.83;99896.56;5036440;27;98838;-75
2021/05/16 11:50:49;;;;;;;;;;;;;;;23.10;31.32;99890.56;5038020;27;99468;-75
2021/05/16 11:53:21;;;;;;;;;;;;;;;23.40;30.68;99890.13;5032429;27;97112;-76
2021/05/16 11:55:47;;;;;;;;;;;;;;;23.11;31.11;99894.91;5031288;27;96996;-74
2021/05/16 11:58:13;;;;;;;;;;;;;;;22.61;31.91;99901.66;5032069;27;98654;-74
2021/05/16 12:00:39;;;;;;;;;;;;;;;22.54;33.85;99911.31;5031604;27;100209;-75
2021/05/16 12:03:09;;;;;;;;;;;;;;;22.84;34.36;99906.66;5032548;27;97386;-76
2021/05/16 12:05:35;;;;;;;;;;;;;;;22.41;34.50;99916.22;5030841;27;96976;-74
2021/05/16 12:08:11;;;;;;;;;;;;;;;22.21;35.01;99910.09;5030661;27;98950;-74
2021/05/16 12:10:37;;;;;;;;;;;;;;;22.73;33.46;99915.78;5026998;27;99096;-75
2021/05/16 12:13:03;;;;;;;;;;;;;;;22.40;33.35;99905.59;5029716;27;97818;-76
2021/05/16 12:15:29;;;;;;;;;;;;;;;21.68;33.44;99904.44;5032531;27;96827;-75
2021/05/16 12:17:56;;;;;;;;;;;;;;;22.22;33.58;99900.16;5032473;27;99188;-75
2021/05/16 12:20:26;;;;;;;;;;;;;;;21.97;32.81;99901.69;5032413;27;98793;-76
2021/05/16 12:22:51;;;;;;;;;;;;;;;22.26;32.88;99899.72;5030141;27;97504;-75
2021/05/16 12:25:17;;;;;;;;;;;;;;;22.15;32.40;99910.69;5030123;27;98342;-75
2021/05/16 12:27:43;;;;;;;;;;;;;;;21.84;33.04;99907.38;5026587;27;97944;-75
2021/05/16 12:30:10;;;;;;;;;;;;;;;22.76;32.54;99906.56;5031260;28;98700;-75
2021/05/16 12:32:36;;;;;;;;;;;;;;;22.08;33.72;99903.34;5033875;27;97794;-76
2021/05/16 12:35:01;;;;;;;;;;;;;;;22.12;33.78;99910.97;5033775;27;96884;-76
2021/05/16 12:37:29;;;;;;;;;;;;;;;21.96;34.29;99904.53;5031917;27;99199;-77
2021/05/16 12:39:57;;;;;;;;;;;;;;;21.65;35.20;99911.97;5034034;28;98832;-76
2021/05/16 12:42:24;;;;;;;;;;;;;;;21.26;36.39;99916.53;5029233;27;97011;-75
2021/05/16 12:44:50;;;;;;;;;;;;;;;21.22;37.29;99917.81;5026541;27;97189;-76